sensor_id;sensor_type;location;lat;lon;timestamp;P1;durP1;ratioP1;P2;durP2;ratioP2
72478;SDS011;60658;52.246;5.258;2022-08-27T03:35:52;6.30;;;3.17;;
72478;SDS011;60658;52.246;5.258;2022-08-27T03:37:24;6.85;;;3.50;;
72478;SDS011;60658;52.246;5.258;2022-08-27T04:18:11;5.70;;;3.83;;
72478;SDS011;60658;52.246;5.258;2022-08-27T04:35:47;9.15;;;3.35;;
72478;SDS011;60658;52.246;5.258;2022-08-27T04:40:45;7.28;;;2.90;;
72478;SDS011;60658;52.246;5.258;2022-08-27T04:59:29;5.85;;;2.75;;
72478;SDS011;60658;52.246;5.258;2022-08-27T05:00:33;5.20;;;2.78;;
72478;SDS011;60658;52.246;5.258;2022-08-27T05:01:34;6.38;;;2.80;;
72478;SDS011;60658;52.246;5.258;2022-08-27T05:02:35;7.93;;;3.08;;
72478;SDS011;60658;52.246;5.258;2022-08-27T05:03:36;4.18;;;2.90;;
72478;SDS011;60658;52.246;5.258;2022-08-27T05:04:46;4.72;;;2.80;;
72478;SDS011;60658;52.246;5.258;2022-08-27T05:05:46;6.80;;;2.70;;
72478;SDS011;60658;52.246;5.258;2022-08-27T05:07:00;5.55;;;3.20;;
72478;SDS011;60658;52.246;5.258;2022-08-27T05:08:00;6.43;;;3.38;;
72478;SDS011;60658;52.246;5.258;2022-08-27T05:09:02;4.22;;;2.90;;
72478;SDS011;60658;52.246;5.258;2022-08-27T05:10:03;5.88;;;2.72;;
72478;SDS011;60658;52.246;5.258;2022-08-27T05:11:05;4.10;;;2.45;;
72478;SDS011;60658;52.246;5.258;2022-08-27T05:12:09;4.63;;;2.67;;
72478;SDS011;60658;52.246;5.258;2022-08-27T05:13:10;5.05;;;3.08;;
72478;SDS011;60658;52.246;5.258;2022-08-27T05:14:11;5.28;;;3.03;;
72478;SDS011;60658;52.246;5.258;2022-08-27T05:15:14;4.60;;;2.50;;
72478;SDS011;60658;52.246;5.258;2022-08-27T05:16:15;5.40;;;2.35;;
72478;SDS011;60658;52.246;5.258;2022-08-27T05:17:16;6.72;;;2.75;;
72478;SDS011;60658;52.246;5.258;2022-08-27T05:18:19;4.45;;;2.92;;
72478;SDS011;60658;52.246;5.258;2022-08-27T05:19:20;5.70;;;2.85;;
72478;SDS011;60658;52.246;5.258;2022-08-27T05:20:21;4.78;;;2.30;;
72478;SDS011;60658;52.246;5.258;2022-08-27T05:21:23;5.20;;;2.63;;
72478;SDS011;60658;52.246;5.258;2022-08-27T05:22:24;5.88;;;2.72;;
72478;SDS011;60658;52.246;5.258;2022-08-27T05:23:24;5.13;;;2.70;;
72478;SDS011;60658;52.246;5.258;2022-08-27T05:24:25;6.00;;;2.80;;
72478;SDS011;60658;52.246;5.258;2022-08-27T05:25:26;4.90;;;3.00;;
72478;SDS011;60658;52.246;5.258;2022-08-27T05:26:27;8.45;;;2.88;;
72478;SDS011;60658;52.246;5.258;2022-08-27T05:27:28;7.63;;;2.97;;
72478;SDS011;60658;52.246;5.258;2022-08-27T05:28:28;7.97;;;3.13;;
72478;SDS011;60658;52.246;5.258;2022-08-27T05:29:29;6.07;;;2.53;;
72478;SDS011;60658;52.246;5.258;2022-08-27T05:30:35;6.15;;;2.83;;
72478;SDS011;60658;52.246;5.258;2022-08-27T05:31:36;4.68;;;2.70;;
72478;SDS011;60658;52.246;5.258;2022-08-27T05:32:37;6.88;;;2.40;;
72478;SDS011;60658;52.246;5.258;2022-08-27T05:33:38;3.97;;;2.33;;
72478;SDS011;60658;52.246;5.258;2022-08-27T05:34:38;5.97;;;2.97;;
72478;SDS011;60658;52.246;5.258;2022-08-27T05:35:39;8.20;;;3.05;;
72478;SDS011;60658;52.246;5.258;2022-08-27T05:36:40;6.22;;;2.70;;
72478;SDS011;60658;52.246;5.258;2022-08-27T05:37:41;6.70;;;2.70;;
72478;SDS011;60658;52.246;5.258;2022-08-27T05:38:41;6.10;;;2.80;;
72478;SDS011;60658;52.246;5.258;2022-08-27T05:39:42;6.35;;;3.00;;
72478;SDS011;60658;52.246;5.258;2022-08-27T05:40:43;5.63;;;2.40;;
72478;SDS011;60658;52.246;5.258;2022-08-27T05:41:44;4.78;;;2.60;;
72478;SDS011;60658;52.246;5.258;2022-08-27T05:42:45;8.23;;;3.45;;
72478;SDS011;60658;52.246;5.258;2022-08-27T05:43:46;6.28;;;2.70;;
72478;SDS011;60658;52.246;5.258;2022-08-27T05:44:46;8.50;;;2.50;;
72478;SDS011;60658;52.246;5.258;2022-08-27T05:45:48;6.00;;;2.63;;
72478;SDS011;60658;52.246;5.258;2022-08-27T05:46:49;7.70;;;2.60;;
72478;SDS011;60658;52.246;5.258;2022-08-27T05:47:50;5.30;;;2.58;;
72478;SDS011;60658;52.246;5.258;2022-08-27T05:48:51;6.22;;;2.67;;
72478;SDS011;60658;52.246;5.258;2022-08-27T05:49:54;5.60;;;2.80;;
72478;SDS011;60658;52.246;5.258;2022-08-27T05:50:55;5.80;;;2.80;;
72478;SDS011;60658;52.246;5.258;2022-08-27T05:51:56;5.20;;;3.15;;
72478;SDS011;60658;52.246;5.258;2022-08-27T05:54:34;5.13;;;2.75;;
72478;SDS011;60658;52.246;5.258;2022-08-27T05:55:35;8.35;;;2.92;;
72478;SDS011;60658;52.246;5.258;2022-08-27T05:56:37;7.43;;;2.60;;
72478;SDS011;60658;52.246;5.258;2022-08-27T05:57:38;8.20;;;3.17;;
72478;SDS011;60658;52.246;5.258;2022-08-27T05:58:39;5.57;;;3.03;;
72478;SDS011;60658;52.246;5.258;2022-08-27T05:59:39;7.95;;;3.00;;
72478;SDS011;60658;52.246;5.258;2022-08-27T06:00:40;7.57;;;2.78;;
72478;SDS011;60658;52.246;5.258;2022-08-27T06:01:43;4.43;;;2.78;;
72478;SDS011;60658;52.246;5.258;2022-08-27T06:02:44;5.63;;;2.90;;
72478;SDS011;60658;52.246;5.258;2022-08-27T06:03:45;5.53;;;2.78;;
72478;SDS011;60658;52.246;5.258;2022-08-27T06:04:46;4.88;;;2.90;;
72478;SDS011;60658;52.246;5.258;2022-08-27T06:05:46;5.38;;;2.97;;
72478;SDS011;60658;52.246;5.258;2022-08-27T06:06:47;4.90;;;2.50;;
72478;SDS011;60658;52.246;5.258;2022-08-27T06:07:48;5.65;;;2.60;;
72478;SDS011;60658;52.246;5.258;2022-08-27T06:08:52;8.18;;;2.50;;
72478;SDS011;60658;52.246;5.258;2022-08-27T06:09:55;6.93;;;2.53;;
72478;SDS011;60658;52.246;5.258;2022-08-27T06:10:58;6.00;;;2.53;;
72478;SDS011;60658;52.246;5.258;2022-08-27T06:11:59;6.57;;;3.08;;
72478;SDS011;60658;52.246;5.258;2022-08-27T06:13:00;8.80;;;3.47;;
72478;SDS011;60658;52.246;5.258;2022-08-27T06:14:01;9.00;;;3.00;;
72478;SDS011;60658;52.246;5.258;2022-08-27T06:15:02;6.10;;;2.53;;
72478;SDS011;60658;52.246;5.258;2022-08-27T06:16:04;6.03;;;2.70;;
72478;SDS011;60658;52.246;5.258;2022-08-27T06:17:08;6.32;;;2.72;;
72478;SDS011;60658;52.246;5.258;2022-08-27T06:18:09;6.22;;;3.20;;
72478;SDS011;60658;52.246;5.258;2022-08-27T06:19:10;7.00;;;2.75;;
72478;SDS011;60658;52.246;5.258;2022-08-27T06:20:11;4.88;;;2.40;;
72478;SDS011;60658;52.246;5.258;2022-08-27T06:21:12;4.63;;;2.60;;
72478;SDS011;60658;52.246;5.258;2022-08-27T06:22:13;7.22;;;2.88;;
72478;SDS011;60658;52.246;5.258;2022-08-27T06:23:14;6.20;;;2.30;;
72478;SDS011;60658;52.246;5.258;2022-08-27T06:24:15;4.93;;;2.33;;
72478;SDS011;60658;52.246;5.258;2022-08-27T06:25:15;6.25;;;2.55;;
72478;SDS011;60658;52.246;5.258;2022-08-27T06:26:17;5.43;;;2.35;;
72478;SDS011;60658;52.246;5.258;2022-08-27T06:27:18;5.13;;;2.65;;
72478;SDS011;60658;52.246;5.258;2022-08-27T06:28:19;5.90;;;2.67;;
72478;SDS011;60658;52.246;5.258;2022-08-27T06:29:20;9.02;;;3.20;;
72478;SDS011;60658;52.246;5.258;2022-08-27T06:30:20;7.65;;;2.67;;
72478;SDS011;60658;52.246;5.258;2022-08-27T06:31:25;3.20;;;2.40;;
72478;SDS011;60658;52.246;5.258;2022-08-27T06:32:28;4.28;;;2.58;;
72478;SDS011;60658;52.246;5.258;2022-08-27T06:33:28;6.45;;;2.50;;
72478;SDS011;60658;52.246;5.258;2022-08-27T06:34:29;5.90;;;2.55;;
72478;SDS011;60658;52.246;5.258;2022-08-27T06:35:30;6.90;;;2.70;;
72478;SDS011;60658;52.246;5.258;2022-08-27T06:36:34;5.10;;;2.53;;
72478;SDS011;60658;52.246;5.258;2022-08-27T06:37:35;5.50;;;2.75;;
72478;SDS011;60658;52.246;5.258;2022-08-27T06:38:37;5.55;;;2.67;;
72478;SDS011;60658;52.246;5.258;2022-08-27T06:39:38;4.40;;;2.33;;
72478;SDS011;60658;52.246;5.258;2022-08-27T06:40:39;5.10;;;2.33;;
72478;SDS011;60658;52.246;5.258;2022-08-27T06:41:40;4.10;;;2.50;;
72478;SDS011;60658;52.246;5.258;2022-08-27T06:42:41;8.02;;;2.67;;
72478;SDS011;60658;52.246;5.258;2022-08-27T06:43:42;6.32;;;2.50;;
72478;SDS011;60658;52.246;5.258;2022-08-27T06:44:43;4.75;;;2.20;;
72478;SDS011;60658;52.246;5.258;2022-08-27T06:45:43;5.10;;;2.50;;
72478;SDS011;60658;52.246;5.258;2022-08-27T06:46:44;5.45;;;2.35;;
72478;SDS011;60658;52.246;5.258;2022-08-27T06:47:46;6.20;;;3.20;;
72478;SDS011;60658;52.246;5.258;2022-08-27T06:48:49;5.07;;;2.40;;
72478;SDS011;60658;52.246;5.258;2022-08-27T06:49:50;6.15;;;2.50;;
72478;SDS011;60658;52.246;5.258;2022-08-27T06:50:53;11.10;;;3.15;;
72478;SDS011;60658;52.246;5.258;2022-08-27T06:51:54;6.88;;;2.50;;
72478;SDS011;60658;52.246;5.258;2022-08-27T06:52:55;6.47;;;2.70;;
72478;SDS011;60658;52.246;5.258;2022-08-27T06:53:56;5.55;;;2.50;;
72478;SDS011;60658;52.246;5.258;2022-08-27T06:55:01;4.38;;;2.22;;
72478;SDS011;60658;52.246;5.258;2022-08-27T06:56:03;5.80;;;2.28;;
72478;SDS011;60658;52.246;5.258;2022-08-27T06:57:15;6.03;;;2.10;;
72478;SDS011;60658;52.246;5.258;2022-08-27T06:58:19;5.88;;;2.40;;
72478;SDS011;60658;52.246;5.258;2022-08-27T06:59:20;6.57;;;2.40;;
72478;SDS011;60658;52.246;5.258;2022-08-27T07:00:26;9.15;;;2.45;;
72478;SDS011;60658;52.246;5.258;2022-08-27T07:01:31;5.22;;;2.80;;
72478;SDS011;60658;52.246;5.258;2022-08-27T07:02:39;6.78;;;2.50;;
72478;SDS011;60658;52.246;5.258;2022-08-27T07:04:03;5.70;;;2.33;;
72478;SDS011;60658;52.246;5.258;2022-08-27T07:05:04;5.25;;;2.15;;
72478;SDS011;60658;52.246;5.258;2022-08-27T07:06:06;5.03;;;2.10;;
72478;SDS011;60658;52.246;5.258;2022-08-27T07:07:09;7.13;;;2.67;;
72478;SDS011;60658;52.246;5.258;2022-08-27T07:09:23;6.82;;;2.63;;
72478;SDS011;60658;52.246;5.258;2022-08-27T07:10:23;5.00;;;2.38;;
72478;SDS011;60658;52.246;5.258;2022-08-27T07:11:27;5.75;;;2.08;;
72478;SDS011;60658;52.246;5.258;2022-08-27T07:12:34;5.50;;;2.35;;
72478;SDS011;60658;52.246;5.258;2022-08-27T07:14:16;8.18;;;2.33;;
72478;SDS011;60658;52.246;5.258;2022-08-27T07:15:00;7.32;;;2.38;;
72478;SDS011;60658;52.246;5.258;2022-08-27T07:16:07;5.13;;;1.95;;
72478;SDS011;60658;52.246;5.258;2022-08-27T07:17:14;5.80;;;2.42;;
72478;SDS011;60658;52.246;5.258;2022-08-27T07:18:22;5.93;;;2.13;;
72478;SDS011;60658;52.246;5.258;2022-08-27T07:19:28;6.88;;;2.45;;
72478;SDS011;60658;52.246;5.258;2022-08-27T07:20:34;11.50;;;2.72;;
72478;SDS011;60658;52.246;5.258;2022-08-27T07:21:42;5.05;;;2.40;;
72478;SDS011;60658;52.246;5.258;2022-08-27T07:22:52;4.65;;;2.25;;
72478;SDS011;60658;52.246;5.258;2022-08-27T07:53:32;4.22;;;2.00;;
72478;SDS011;60658;52.246;5.258;2022-08-27T07:57:38;5.78;;;2.35;;
72478;SDS011;60658;52.246;5.258;2022-08-27T07:59:34;5.07;;;2.13;;
72478;SDS011;60658;52.246;5.258;2022-08-27T08:00:55;5.00;;;2.38;;
72478;SDS011;60658;52.246;5.258;2022-08-27T08:02:17;7.22;;;2.35;;
72478;SDS011;60658;52.246;5.258;2022-08-27T08:03:18;5.28;;;2.45;;
72478;SDS011;60658;52.246;5.258;2022-08-27T08:04:18;5.25;;;2.35;;
72478;SDS011;60658;52.246;5.258;2022-08-27T08:05:19;6.25;;;2.33;;
72478;SDS011;60658;52.246;5.258;2022-08-27T08:06:20;5.65;;;2.30;;
72478;SDS011;60658;52.246;5.258;2022-08-27T08:07:21;5.63;;;2.05;;
72478;SDS011;60658;52.246;5.258;2022-08-27T08:08:22;5.93;;;2.38;;
72478;SDS011;60658;52.246;5.258;2022-08-27T08:09:24;6.55;;;2.33;;
72478;SDS011;60658;52.246;5.258;2022-08-27T08:10:24;5.38;;;2.40;;
72478;SDS011;60658;52.246;5.258;2022-08-27T08:11:25;6.85;;;2.60;;
72478;SDS011;60658;52.246;5.258;2022-08-27T08:12:26;5.18;;;2.10;;
72478;SDS011;60658;52.246;5.258;2022-08-27T08:13:26;5.15;;;2.20;;
72478;SDS011;60658;52.246;5.258;2022-08-27T08:14:28;6.47;;;2.05;;
72478;SDS011;60658;52.246;5.258;2022-08-27T08:15:28;3.95;;;2.28;;
72478;SDS011;60658;52.246;5.258;2022-08-27T08:16:29;6.60;;;2.30;;
72478;SDS011;60658;52.246;5.258;2022-08-27T08:17:31;4.40;;;1.95;;
72478;SDS011;60658;52.246;5.258;2022-08-27T08:18:32;4.10;;;1.70;;
72478;SDS011;60658;52.246;5.258;2022-08-27T08:19:32;5.30;;;1.88;;
72478;SDS011;60658;52.246;5.258;2022-08-27T08:20:33;3.92;;;2.00;;
72478;SDS011;60658;52.246;5.258;2022-08-27T08:21:34;4.05;;;1.80;;
72478;SDS011;60658;52.246;5.258;2022-08-27T08:22:35;4.63;;;1.85;;
72478;SDS011;60658;52.246;5.258;2022-08-27T08:23:37;3.72;;;1.77;;
72478;SDS011;60658;52.246;5.258;2022-08-27T08:24:39;5.18;;;2.10;;
72478;SDS011;60658;52.246;5.258;2022-08-27T08:25:39;5.38;;;2.13;;
72478;SDS011;60658;52.246;5.258;2022-08-27T08:26:40;5.43;;;1.92;;
72478;SDS011;60658;52.246;5.258;2022-08-27T08:27:41;8.85;;;2.63;;
72478;SDS011;60658;52.246;5.258;2022-08-27T08:28:42;6.85;;;2.15;;
72478;SDS011;60658;52.246;5.258;2022-08-27T08:29:43;4.97;;;2.70;;
72478;SDS011;60658;52.246;5.258;2022-08-27T08:30:43;8.05;;;2.63;;
72478;SDS011;60658;52.246;5.258;2022-08-27T08:31:45;5.88;;;2.33;;
72478;SDS011;60658;52.246;5.258;2022-08-27T08:32:54;5.22;;;2.10;;
72478;SDS011;60658;52.246;5.258;2022-08-27T08:33:57;3.33;;;1.65;;
72478;SDS011;60658;52.246;5.258;2022-08-27T08:35:21;3.55;;;1.20;;
72478;SDS011;60658;52.246;5.258;2022-08-27T08:36:25;3.45;;;1.25;;
72478;SDS011;60658;52.246;5.258;2022-08-27T08:40:23;3.45;;;1.40;;
72478;SDS011;60658;52.246;5.258;2022-08-27T08:42:51;4.13;;;1.40;;
72478;SDS011;60658;52.246;5.258;2022-08-27T08:43:56;3.00;;;1.10;;
72478;SDS011;60658;52.246;5.258;2022-08-27T08:44:59;3.58;;;1.17;;
72478;SDS011;60658;52.246;5.258;2022-08-27T08:46:02;3.08;;;1.10;;
72478;SDS011;60658;52.246;5.258;2022-08-27T08:47:07;4.43;;;1.83;;
72478;SDS011;60658;52.246;5.258;2022-08-27T08:48:14;5.75;;;1.50;;
72478;SDS011;60658;52.246;5.258;2022-08-27T08:49:22;3.78;;;1.00;;
72478;SDS011;60658;52.246;5.258;2022-08-27T08:50:32;5.43;;;1.67;;
72478;SDS011;60658;52.246;5.258;2022-08-27T08:51:35;4.78;;;1.63;;
72478;SDS011;60658;52.246;5.258;2022-08-27T08:52:42;4.63;;;1.25;;
72478;SDS011;60658;52.246;5.258;2022-08-27T08:53:47;3.42;;;1.00;;
72478;SDS011;60658;52.246;5.258;2022-08-27T08:54:50;4.68;;;1.30;;
72478;SDS011;60658;52.246;5.258;2022-08-27T08:55:59;4.65;;;1.35;;
72478;SDS011;60658;52.246;5.258;2022-08-27T08:57:10;7.03;;;1.33;;
72478;SDS011;60658;52.246;5.258;2022-08-27T08:58:15;7.47;;;1.40;;
72478;SDS011;60658;52.246;5.258;2022-08-27T08:59:24;6.68;;;1.40;;
72478;SDS011;60658;52.246;5.258;2022-08-27T09:00:27;2.90;;;1.13;;
72478;SDS011;60658;52.246;5.258;2022-08-27T09:01:28;4.22;;;1.30;;
72478;SDS011;60658;52.246;5.258;2022-08-27T09:02:44;4.63;;;1.35;;
72478;SDS011;60658;52.246;5.258;2022-08-27T09:03:53;3.17;;;1.10;;
72478;SDS011;60658;52.246;5.258;2022-08-27T09:04:55;3.97;;;1.10;;
72478;SDS011;60658;52.246;5.258;2022-08-27T09:06:03;4.22;;;1.23;;
72478;SDS011;60658;52.246;5.258;2022-08-27T09:07:08;3.20;;;1.20;;
72478;SDS011;60658;52.246;5.258;2022-08-27T09:08:16;2.83;;;1.17;;
72478;SDS011;60658;52.246;5.258;2022-08-27T09:09:38;5.78;;;1.27;;
72478;SDS011;60658;52.246;5.258;2022-08-27T09:10:51;7.60;;;1.35;;
72478;SDS011;60658;52.246;5.258;2022-08-27T09:12:00;5.82;;;1.30;;
72478;SDS011;60658;52.246;5.258;2022-08-27T09:13:03;6.22;;;1.33;;
72478;SDS011;60658;52.246;5.258;2022-08-27T09:14:16;4.45;;;1.42;;
72478;SDS011;60658;52.246;5.258;2022-08-27T09:15:46;8.50;;;1.33;;
72478;SDS011;60658;52.246;5.258;2022-08-27T09:18:13;4.57;;;1.40;;
72478;SDS011;60658;52.246;5.258;2022-08-27T09:19:18;6.28;;;1.60;;
72478;SDS011;60658;52.246;5.258;2022-08-27T09:19:27;5.07;;;1.25;;
72478;SDS011;60658;52.246;5.258;2022-08-27T09:20:22;4.80;;;1.52;;
72478;SDS011;60658;52.246;5.258;2022-08-27T09:21:30;4.88;;;1.30;;
72478;SDS011;60658;52.246;5.258;2022-08-27T09:22:40;4.18;;;1.20;;
72478;SDS011;60658;52.246;5.258;2022-08-27T09:24:04;3.05;;;1.30;;
72478;SDS011;60658;52.246;5.258;2022-08-27T09:25:19;4.80;;;1.30;;
72478;SDS011;60658;52.246;5.258;2022-08-27T09:26:21;3.65;;;1.25;;
72478;SDS011;60658;52.246;5.258;2022-08-27T09:30:39;3.95;;;1.30;;
72478;SDS011;60658;52.246;5.258;2022-08-27T09:37:05;4.05;;;1.45;;
72478;SDS011;60658;52.246;5.258;2022-08-27T09:38:41;4.13;;;1.25;;
72478;SDS011;60658;52.246;5.258;2022-08-27T09:39:55;2.88;;;1.20;;
72478;SDS011;60658;52.246;5.258;2022-08-27T09:41:01;3.72;;;1.10;;
72478;SDS011;60658;52.246;5.258;2022-08-27T09:42:05;3.63;;;1.10;;
72478;SDS011;60658;52.246;5.258;2022-08-27T09:43:20;4.40;;;1.08;;
72478;SDS011;60658;52.246;5.258;2022-08-27T09:45:54;4.88;;;1.20;;
72478;SDS011;60658;52.246;5.258;2022-08-27T09:47:10;3.08;;;1.38;;
72478;SDS011;60658;52.246;5.258;2022-08-27T09:48:13;5.15;;;1.17;;
72478;SDS011;60658;52.246;5.258;2022-08-27T09:49:15;4.25;;;1.30;;
72478;SDS011;60658;52.246;5.258;2022-08-27T09:50:17;5.15;;;1.42;;
72478;SDS011;60658;52.246;5.258;2022-08-27T09:51:22;4.50;;;1.15;;
72478;SDS011;60658;52.246;5.258;2022-08-27T09:52:28;5.03;;;1.27;;
72478;SDS011;60658;52.246;5.258;2022-08-27T09:55:13;5.15;;;1.65;;
72478;SDS011;60658;52.246;5.258;2022-08-27T09:58:25;4.82;;;2.15;;
72478;SDS011;60658;52.246;5.258;2022-08-27T09:59:29;8.05;;;1.40;;
72478;SDS011;60658;52.246;5.258;2022-08-27T10:00:37;2.95;;;1.30;;
72478;SDS011;60658;52.246;5.258;2022-08-27T10:01:50;4.47;;;1.05;;
72478;SDS011;60658;52.246;5.258;2022-08-27T10:03:22;4.53;;;1.30;;
72478;SDS011;60658;52.246;5.258;2022-08-27T10:04:32;3.08;;;1.20;;
72478;SDS011;60658;52.246;5.258;2022-08-27T10:05:35;3.40;;;0.93;;
72478;SDS011;60658;52.246;5.258;2022-08-27T10:06:51;2.92;;;1.15;;
72478;SDS011;60658;52.246;5.258;2022-08-27T10:07:57;4.13;;;1.02;;
72478;SDS011;60658;52.246;5.258;2022-08-27T10:09:01;4.70;;;1.30;;
72478;SDS011;60658;52.246;5.258;2022-08-27T10:10:15;7.00;;;1.63;;
72478;SDS011;60658;52.246;5.258;2022-08-27T10:11:20;3.55;;;1.30;;
72478;SDS011;60658;52.246;5.258;2022-08-27T10:12:23;5.03;;;1.23;;
72478;SDS011;60658;52.246;5.258;2022-08-27T10:13:30;3.80;;;1.10;;
72478;SDS011;60658;52.246;5.258;2022-08-27T10:14:32;3.22;;;1.25;;
72478;SDS011;60658;52.246;5.258;2022-08-27T10:15:35;3.20;;;0.98;;
72478;SDS011;60658;52.246;5.258;2022-08-27T10:16:50;6.50;;;1.40;;
72478;SDS011;60658;52.246;5.258;2022-08-27T10:17:58;4.30;;;1.42;;
72478;SDS011;60658;52.246;5.258;2022-08-27T10:19:05;4.60;;;1.40;;
72478;SDS011;60658;52.246;5.258;2022-08-27T10:20:13;5.28;;;1.17;;
72478;SDS011;60658;52.246;5.258;2022-08-27T10:21:18;6.75;;;1.70;;
72478;SDS011;60658;52.246;5.258;2022-08-27T10:22:26;4.80;;;1.42;;
72478;SDS011;60658;52.246;5.258;2022-08-27T10:23:30;4.38;;;1.42;;
72478;SDS011;60658;52.246;5.258;2022-08-27T10:24:38;4.93;;;1.10;;
72478;SDS011;60658;52.246;5.258;2022-08-27T10:25:44;7.80;;;1.27;;
72478;SDS011;60658;52.246;5.258;2022-08-27T10:26:56;5.55;;;1.20;;
72478;SDS011;60658;52.246;5.258;2022-08-27T10:28:05;3.65;;;0.98;;
72478;SDS011;60658;52.246;5.258;2022-08-27T10:29:10;3.50;;;1.00;;
72478;SDS011;60658;52.246;5.258;2022-08-27T10:30:19;4.95;;;1.20;;
72478;SDS011;60658;52.246;5.258;2022-08-27T10:31:22;5.63;;;1.27;;
72478;SDS011;60658;52.246;5.258;2022-08-27T10:32:31;3.50;;;1.10;;
72478;SDS011;60658;52.246;5.258;2022-08-27T10:33:35;2.80;;;1.20;;
72478;SDS011;60658;52.246;5.258;2022-08-27T10:34:39;5.10;;;1.23;;
72478;SDS011;60658;52.246;5.258;2022-08-27T10:35:44;5.63;;;1.17;;
72478;SDS011;60658;52.246;5.258;2022-08-27T10:36:49;6.40;;;1.35;;
72478;SDS011;60658;52.246;5.258;2022-08-27T10:38:56;3.55;;;1.25;;
72478;SDS011;60658;52.246;5.258;2022-08-27T10:40:05;6.22;;;1.23;;
72478;SDS011;60658;52.246;5.258;2022-08-27T10:41:11;4.10;;;1.20;;
72478;SDS011;60658;52.246;5.258;2022-08-27T10:42:19;3.38;;;1.20;;
72478;SDS011;60658;52.246;5.258;2022-08-27T10:43:29;4.38;;;1.20;;
72478;SDS011;60658;52.246;5.258;2022-08-27T10:46:02;4.72;;;1.08;;
72478;SDS011;60658;52.246;5.258;2022-08-27T10:47:22;5.60;;;1.30;;
72478;SDS011;60658;52.246;5.258;2022-08-27T10:48:28;4.45;;;1.10;;
72478;SDS011;60658;52.246;5.258;2022-08-27T10:49:33;3.78;;;1.20;;
72478;SDS011;60658;52.246;5.258;2022-08-27T10:50:38;5.00;;;1.02;;
72478;SDS011;60658;52.246;5.258;2022-08-27T10:51:45;3.67;;;1.10;;
72478;SDS011;60658;52.246;5.258;2022-08-27T10:52:57;5.55;;;1.42;;
72478;SDS011;60658;52.246;5.258;2022-08-27T10:54:05;3.47;;;1.00;;
72478;SDS011;60658;52.246;5.258;2022-08-27T10:55:08;6.80;;;1.45;;
72478;SDS011;60658;52.246;5.258;2022-08-27T10:56:12;4.03;;;1.10;;
72478;SDS011;60658;52.246;5.258;2022-08-27T10:57:22;3.22;;;1.00;;
72478;SDS011;60658;52.246;5.258;2022-08-27T10:58:30;2.83;;;1.08;;
72478;SDS011;60658;52.246;5.258;2022-08-27T10:59:43;3.67;;;1.30;;
72478;SDS011;60658;52.246;5.258;2022-08-27T11:00:51;6.05;;;1.38;;
72478;SDS011;60658;52.246;5.258;2022-08-27T11:01:58;4.13;;;1.17;;
72478;SDS011;60658;52.246;5.258;2022-08-27T11:03:13;3.67;;;1.20;;
72478;SDS011;60658;52.246;5.258;2022-08-27T11:04:19;4.22;;;1.10;;
72478;SDS011;60658;52.246;5.258;2022-08-27T11:05:26;6.18;;;1.35;;
72478;SDS011;60658;52.246;5.258;2022-08-27T11:06:29;3.58;;;1.17;;
72478;SDS011;60658;52.246;5.258;2022-08-27T11:07:32;5.78;;;1.30;;
72478;SDS011;60658;52.246;5.258;2022-08-27T11:08:37;6.55;;;1.40;;
72478;SDS011;60658;52.246;5.258;2022-08-27T11:09:40;5.15;;;1.27;;
72478;SDS011;60658;52.246;5.258;2022-08-27T11:10:44;3.83;;;1.05;;
72478;SDS011;60658;52.246;5.258;2022-08-27T11:11:47;3.35;;;1.10;;
72478;SDS011;60658;52.246;5.258;2022-08-27T11:12:50;4.65;;;1.25;;
72478;SDS011;60658;52.246;5.258;2022-08-27T11:13:52;3.80;;;1.00;;
72478;SDS011;60658;52.246;5.258;2022-08-27T11:14:56;2.90;;;0.90;;
72478;SDS011;60658;52.246;5.258;2022-08-27T11:15:58;5.90;;;1.02;;
72478;SDS011;60658;52.246;5.258;2022-08-27T11:17:01;4.78;;;1.20;;
72478;SDS011;60658;52.246;5.258;2022-08-27T11:18:04;6.18;;;1.02;;
72478;SDS011;60658;52.246;5.258;2022-08-27T11:19:09;2.67;;;1.20;;
72478;SDS011;60658;52.246;5.258;2022-08-27T11:20:14;4.45;;;1.20;;
72478;SDS011;60658;52.246;5.258;2022-08-27T11:21:18;3.35;;;0.85;;
72478;SDS011;60658;52.246;5.258;2022-08-27T11:22:23;3.40;;;0.98;;
72478;SDS011;60658;52.246;5.258;2022-08-27T11:23:25;4.03;;;1.08;;
72478;SDS011;60658;52.246;5.258;2022-08-27T11:24:30;5.72;;;1.20;;
72478;SDS011;60658;52.246;5.258;2022-08-27T11:25:36;4.32;;;1.20;;
72478;SDS011;60658;52.246;5.258;2022-08-27T11:26:38;4.82;;;1.00;;
72478;SDS011;60658;52.246;5.258;2022-08-27T11:27:39;4.82;;;1.40;;
72478;SDS011;60658;52.246;5.258;2022-08-27T11:28:45;5.00;;;1.10;;
72478;SDS011;60658;52.246;5.258;2022-08-27T11:29:48;5.07;;;1.33;;
72478;SDS011;60658;52.246;5.258;2022-08-27T11:30:53;3.85;;;1.08;;
72478;SDS011;60658;52.246;5.258;2022-08-27T11:31:58;4.75;;;1.10;;
72478;SDS011;60658;52.246;5.258;2022-08-27T11:33:02;4.10;;;1.05;;
72478;SDS011;60658;52.246;5.258;2022-08-27T11:34:05;6.50;;;1.30;;
72478;SDS011;60658;52.246;5.258;2022-08-27T11:35:11;3.10;;;0.85;;
72478;SDS011;60658;52.246;5.258;2022-08-27T11:36:17;6.40;;;1.33;;
72478;SDS011;60658;52.246;5.258;2022-08-27T11:37:27;4.22;;;1.17;;
72478;SDS011;60658;52.246;5.258;2022-08-27T11:38:37;4.07;;;1.08;;
72478;SDS011;60658;52.246;5.258;2022-08-27T11:41:05;5.18;;;1.13;;
72478;SDS011;60658;52.246;5.258;2022-08-27T11:42:12;3.03;;;0.90;;
72478;SDS011;60658;52.246;5.258;2022-08-27T11:43:14;6.53;;;1.33;;
72478;SDS011;60658;52.246;5.258;2022-08-27T11:44:15;4.65;;;0.90;;
72478;SDS011;60658;52.246;5.258;2022-08-27T11:45:17;3.22;;;1.27;;
72478;SDS011;60658;52.246;5.258;2022-08-27T11:46:20;3.72;;;1.10;;
72478;SDS011;60658;52.246;5.258;2022-08-27T11:47:22;4.32;;;0.98;;
72478;SDS011;60658;52.246;5.258;2022-08-27T11:48:24;4.10;;;1.13;;
72478;SDS011;60658;52.246;5.258;2022-08-27T11:49:28;3.70;;;1.33;;
72478;SDS011;60658;52.246;5.258;2022-08-27T11:50:29;4.20;;;0.98;;
72478;SDS011;60658;52.246;5.258;2022-08-27T11:51:32;4.75;;;1.17;;
72478;SDS011;60658;52.246;5.258;2022-08-27T11:52:35;5.55;;;1.30;;
72478;SDS011;60658;52.246;5.258;2022-08-27T11:53:38;3.63;;;1.00;;
72478;SDS011;60658;52.246;5.258;2022-08-27T11:54:43;3.55;;;1.00;;
72478;SDS011;60658;52.246;5.258;2022-08-27T11:55:44;3.47;;;1.02;;
72478;SDS011;60658;52.246;5.258;2022-08-27T11:56:44;4.05;;;1.45;;
72478;SDS011;60658;52.246;5.258;2022-08-27T11:57:46;4.68;;;1.38;;
72478;SDS011;60658;52.246;5.258;2022-08-27T11:58:47;5.47;;;1.20;;
72478;SDS011;60658;52.246;5.258;2022-08-27T11:59:47;6.18;;;1.00;;
72478;SDS011;60658;52.246;5.258;2022-08-27T12:00:48;4.10;;;1.10;;
72478;SDS011;60658;52.246;5.258;2022-08-27T12:01:50;5.30;;;1.20;;
72478;SDS011;60658;52.246;5.258;2022-08-27T12:03:00;3.55;;;1.00;;
72478;SDS011;60658;52.246;5.258;2022-08-27T12:06:18;4.78;;;1.08;;
72478;SDS011;60658;52.246;5.258;2022-08-27T12:07:25;2.67;;;1.00;;
72478;SDS011;60658;52.246;5.258;2022-08-27T12:08:27;6.68;;;1.50;;
72478;SDS011;60658;52.246;5.258;2022-08-27T12:09:39;5.72;;;1.33;;
72478;SDS011;60658;52.246;5.258;2022-08-27T12:10:46;8.80;;;1.50;;
72478;SDS011;60658;52.246;5.258;2022-08-27T12:11:54;3.45;;;0.90;;
72478;SDS011;60658;52.246;5.258;2022-08-27T12:13:06;3.15;;;1.13;;
72478;SDS011;60658;52.246;5.258;2022-08-27T12:14:12;2.20;;;1.02;;
72478;SDS011;60658;52.246;5.258;2022-08-27T12:15:15;7.63;;;1.25;;
72478;SDS011;60658;52.246;5.258;2022-08-27T12:16:19;2.78;;;0.80;;
72478;SDS011;60658;52.246;5.258;2022-08-27T12:17:25;6.30;;;1.42;;
72478;SDS011;60658;52.246;5.258;2022-08-27T12:18:40;5.03;;;1.20;;
72478;SDS011;60658;52.246;5.258;2022-08-27T12:19:45;5.68;;;0.90;;
72478;SDS011;60658;52.246;5.258;2022-08-27T12:20:48;5.80;;;1.27;;
72478;SDS011;60658;52.246;5.258;2022-08-27T12:21:55;3.05;;;0.90;;
72478;SDS011;60658;52.246;5.258;2022-08-27T12:23:05;7.85;;;1.17;;
72478;SDS011;60658;52.246;5.258;2022-08-27T12:24:16;2.25;;;0.88;;